Data for 09/14/2014

Time Sea-Level Adjusted Pressure Absolute Pressure Temperature Relative Humidity Dew Point   
(mb) (inHg) (mb) (inHg) (C) (F) (%) (C) (F)
00:05 1020 30.12 849 25.07 6.1 43 65 0.1 32.2
00:10 1020 30.12 849 25.07 6 42.8 66 0.2 32.4
00:15 1020 30.12 849 25.07 5.9 42.6 67 0.2 32.4
00:20 1020 30.12 849 25.07 5.8 42.4 67 0.2 32.3
00:25 1020 30.12 849 25.07 5.8 42.4 67 0.2 32.4
00:30 1020 30.12 849 25.07 5.7 42.3 68 0.3 32.5
00:35 1020 30.12 849 25.07 5.6 42.1 69 0.3 32.6
00:40 1020 30.12 849 25.07 5.5 41.9 69 0.3 32.5
00:45 1020 30.12 849 25.07 5.5 41.8 69 0.3 32.6
00:50 1020 30.12 849 25.07 5.4 41.8 70 0.3 32.6
00:55 1020 30.12 849 25.07 5.4 41.6 70 0.3 32.5
01:00 1020 30.12 849 25.07 5.4 41.7 69 0.3 32.5
01:05 1020 30.12 849 25.07 5.4 41.7 70 0.4 32.7
01:10 1020 30.12 849 25.07 5.3 41.6 70 0.3 32.5
01:15 1020 30.12 849 25.07 5.3 41.5 70 0.3 32.6
01:20 1020 30.12 849 25.07 5.2 41.4 71 0.4 32.7
01:25 1020 30.12 849 25.07 5.2 41.3 71 0.3 32.6
01:30 1020 30.12 849 25.07 5.2 41.3 71 0.4 32.7
01:35 1020 30.12 849 25.07 5.1 41.1 72 0.4 32.6
01:40 1020 30.12 849 25.07 5 41 72 0.4 32.7
01:45 1020 30.12 849 25.07 4.9 40.8 72 0.4 32.7
01:50 1020 30.12 849 25.07 4.8 40.6 73 0.3 32.6
01:55 1020 30.12 849 25.07 4.7 40.4 73 0.3 32.5
02:00 1020 30.12 849 25.07 4.6 40.2 74 0.3 32.5
02:05 1020 30.12 849 25.07 4.5 40.1 74 0.3 32.5
02:10 1020 30.12 849 25.07 4.4 39.9 75 0.3 32.5
02:15 1020 30.12 849 25.07 4.3 39.7 75 0.2 32.3
02:20 1020 30.12 849 25.07 4.2 39.6 75 0.2 32.4
02:25 1020 30.12 849 25.07 4.1 39.4 76 0.2 32.4
02:30 1020 30.12 849 25.07 4 39.2 76 0.2 32.3
02:35 1020 30.12 849 25.07 4 39.3 76 0.1 32.3
02:40 1020 30.12 849 25.07 4 39.2 76 0.1 32.2
02:45 1020 30.12 849 25.07 3.9 39 76 0.2 32.3
02:50 1020 30.12 849 25.07 3.8 38.8 77 0.1 32.1
02:55 1020 30.12 849 25.07 3.7 38.7 77 0 32
03:00 1020 30.12 849 25.07 3.7 38.7 76 -0 31.9
03:05 1020 30.12 849 25.07 3.8 38.8 76 -0 31.9
03:10 1020 30.12 849 25.07 3.8 38.8 76 -0 32
03:15 1020 30.12 849 25.07 3.7 38.7 76 -0.1 31.8
03:20 1020 30.12 849 25.07 3.7 38.6 77 -0.1 31.9
03:25 1020 30.12 849 25.07 3.6 38.5 77 -0.1 31.8
03:30 1020 30.12 849 25.07 3.6 38.4 77 -0.1 31.8
03:35 1020 30.12 849 25.07 3.6 38.4 77 -0.1 31.8
03:40 1020 30.12 849 25.07 3.5 38.4 77 -0.1 31.8
03:45 1020 30.12 849 25.07 3.6 38.4 77 -0 31.9
03:50 1020 30.12 849 25.07 3.6 38.5 77 0 32.1
03:55 1020 30.12 849 25.07 3.5 38.3 77 -0 31.9
04:00 1020 30.12 849 25.07 3.5 38.3 78 -0 32
04:05 1020 30.12 849 25.07 3.6 38.4 77 -0.1 31.8
04:10 1020 30.12 849 25.07 3.6 38.4 77 -0.1 31.8
04:15 1020 30.12 849 25.07 3.5 38.4 77 -0.1 31.9
04:20 1020 30.12 849 25.07 3.5 38.3 77 -0.1 31.8
04:25 1020 30.12 849 25.07 3.5 38.3 77 -0.1 31.8
04:30 1020 30.12 849 25.07 3.3 38 79 -0 32
04:35 1020 30.12 849 25.07 3.2 37.8 79 -0 31.9
04:40 1020 30.12 849 25.07 3.2 37.7 79 -0.1 31.9
04:45 1020 30.12 849 25.07 3.2 37.8 79 -0 31.9
04:50 1020 30.12 849 25.07 3.2 37.7 80 -0 31.9
04:55 1020 30.12 849 25.07 3.1 37.6 79 -0.2 31.7
05:00 1020 30.12 849 25.07 3 37.5 79 -0.2 31.7
05:05 1020 30.12 849 25.07 3 37.3 80 -0.2 31.6
05:10 1020 30.12 849 25.07 3 37.4 80 -0.2 31.7
05:15 1020 30.12 849 25.07 3 37.3 80 -0.2 31.6
05:20 1020 30.12 849 25.07 3 37.4 79 -0.3 31.5
05:25 1020 30.12 849 25.07 3.1 37.6 79 -0.2 31.6
05:30 1020 30.12 849 25.07 3.1 37.5 79 -0.2 31.7
05:35 1020 30.12 849 25.07 3.1 37.5 79 -0.3 31.5
05:40 1020 30.12 849 25.07 3.1 37.6 79 -0.2 31.6
05:45 1020 30.12 849 25.07 3.2 37.7 78 -0.3 31.5
05:50 1020 30.12 849 25.07 3.1 37.6 79 -0.3 31.5
05:55 1020 30.12 849 25.07 3.1 37.5 79 -0.3 31.5
06:00 1020 30.12 849 25.07 3 37.4 79 -0.3 31.5
06:05 1020 30.12 849 25.07 2.9 37.2 80 -0.3 31.5
06:10 1020 30.12 850 25.1 2.9 37.2 79 -0.3 31.4
06:15 1020 30.12 850 25.1 2.9 37.3 79 -0.3 31.5
06:20 1020 30.12 850 25.1 2.9 37.2 79 -0.4 31.2
06:25 1020 30.12 850 25.1 3 37.4 78 -0.4 31.3
06:30 1020 30.12 850 25.1 3.1 37.6 78 -0.4 31.3
06:35 1021 30.15 850 25.1 3.4 38.1 77 -0.3 31.4
06:40 1021 30.15 850 25.1 3.6 38.4 76 -0.3 31.4
06:45 1021 30.15 850 25.1 3.7 38.7 75 -0.2 31.6
06:50 1021 30.15 850 25.1 3.8 38.8 75 -0.2 31.6
06:55 1021 30.15 850 25.1 3.8 38.8 75 -0.2 31.7
07:00 1021 30.15 850 25.1 3.8 38.9 75 -0.1 31.8
07:05 1021 30.15 850 25.1 3.9 39 75 -0.1 31.8
07:10 1021 30.15 850 25.1 3.9 39.1 75 -0.1 31.9
07:15 1021 30.15 850 25.1 4 39.3 75 -0 32
07:20 1021 30.15 850 25.1 4.2 39.6 75 0.1 32.2
07:25 1021 30.15 850 25.1 4.4 40 74 0.2 32.4
07:30 1021 30.15 850 25.1 4.7 40.4 73 0.2 32.3
07:35 1021 30.15 850 25.1 4.9 40.8 72 0.3 32.6
07:40 1021 30.15 850 25.1 5 41 72 0.4 32.8
07:45 1021 30.15 850 25.1 5.4 41.7 71 0.5 32.9
07:50 1021 30.15 850 25.1 5.6 42.1 70 0.5 33
07:55 1021 30.15 850 25.1 5.6 42 70 0.6 33.1
08:00 1021 30.15 850 25.1 5.9 42.6 70 0.7 33.3
08:05 1021 30.15 850 25.1 6.3 43.3 68 0.9 33.7
08:10 1021 30.15 850 25.1 6.5 43.7 67 0.8 33.4
08:15 1021 30.15 850 25.1 6.7 44 67 1 33.9
08:20 1021 30.15 850 25.1 7.1 44.8 66 1.1 34
08:25 1021 30.15 850 25.1 7.6 45.6 63 0.9 33.7
08:30 1021 30.15 850 25.1 7.6 45.7 63 1.1 33.9
08:35 1021 30.15 850 25.1 7.8 46.1 61 0.7 33.3
08:40 1021 30.15 850 25.1 8.7 47.6 58 0.9 33.7
08:45 1021 30.15 850 25.1 8.8 47.8 58 1.1 34
08:50 1021 30.15 850 25.1 9 48.1 56 0.7 33.2
08:55 1021 30.15 850 25.1 9.3 48.8 55 0.8 33.4
09:00 1021 30.15 850 25.1 9.8 49.6 53 0.6 33.1
09:05 1021 30.15 850 25.1 9.7 49.4 55 1 33.8
09:10 1021 30.15 850 25.1 9.7 49.4 55 1.2 34.1
09:15 1021 30.15 850 25.1 9.6 49.3 56 1.3 34.3
09:20 1021 30.15 850 25.1 9.3 48.8 57 1.2 34.2
09:25 1021 30.15 850 25.1 9.6 49.2 55 1.1 33.9
09:30 1021 30.15 850 25.1 10.2 50.3 54 1.4 34.4
09:35 1021 30.15 850 25.1 10.5 50.9 53 1.4 34.6
09:40 1021 30.15 850 25.1 10.4 50.7 53 1.2 34.2
09:45 1021 30.15 850 25.1 10.9 51.5 52 1.3 34.3
09:50 1021 30.15 850 25.1 11.4 52.4 50 1.4 34.5
09:55 1021 30.15 850 25.1 11.6 53 49 1.5 34.6
10:00 1021 30.15 850 25.1 12.1 53.9 47 1.4 34.4
10:05 1021 30.15 850 25.1 12 53.7 49 1.6 34.9
10:10 1021 30.15 850 25.1 11.7 53.1 50 1.8 35.2
10:15 1021 30.15 850 25.1 12.2 53.9 47 1.3 34.4
10:20 1021 30.15 850 25.1 12.8 55 45 1.1 33.9
10:25 1021 30.15 850 25.1 12.9 55.3 45 1.3 34.3
10:30 1021 30.15 850 25.1 12.5 54.5 45 1 33.8
10:35 1021 30.15 851 25.13 13 55.4 44 1.2 34.2
10:40 1021 30.15 850 25.1 14 57.2 42 1.2 34.2
10:45 1021 30.15 850 25.1 14.1 57.3 42 1.5 34.8
10:50 1021 30.15 850 25.1 14.3 57.7 42 1.6 35
10:55 1021 30.15 850 25.1 14.3 57.8 41 1.4 34.5
11:00 1021 30.15 850 25.1 14.5 58 40 1.2 34.1
11:05 1021 30.15 850 25.1 14.3 57.7 42 1.6 34.8
11:10 1021 30.15 850 25.1 14.7 58.4 41 1.5 34.7
11:15 1021 30.15 850 25.1 14.9 58.8 39 1.1 34
11:20 1021 30.15 850 25.1 15.3 59.6 38 1.1 34.1
11:25 1021 30.15 850 25.1 15.5 59.9 38 1.4 34.5
11:30 1021 30.15 850 25.1 15.6 60 39 1.9 35.3
11:35 1021 30.15 850 25.1 15.5 60 39 1.9 35.4
11:40 1021 30.15 850 25.1 15.8 60.4 37 1.4 34.5
11:45 1021 30.15 850 25.1 15.6 60.2 37 1.3 34.3
11:50 1021 30.15 850 25.1 15.9 60.6 37 1.5 34.7
11:55 1021 30.15 850 25.1 15.9 60.6 37 1.2 34.2
12:00 1021 30.15 850 25.1 16.2 61.2 36 1.3 34.3
12:05 1021 30.15 850 25.1 16.6 61.9 34 0.6 33.1
12:10 1021 30.15 850 25.1 17.5 63.5 33 1.2 34.1
12:15 1021 30.15 850 25.1 17.1 62.7 33 1 33.8
12:20 1021 30.15 850 25.1 17.7 63.8 33 1.2 34.1
12:25 1021 30.15 850 25.1 17.3 63.1 32 0.5 32.9
12:30 1021 30.15 850 25.1 17.7 63.9 30 -0.1 31.7
12:35 1021 30.15 850 25.1 18.8 65.8 28 0.1 32.2
12:40 1021 30.15 850 25.1 18.6 65.4 30 0.6 33.1
12:45 1021 30.15 850 25.1 18.9 66.1 28 0.2 32.3
12:50 1021 30.15 850 25.1 18.8 65.8 27 -0.3 31.4
12:55 1021 30.15 850 25.1 18.9 66.1 27 -0.5 31.1
13:00 1021 30.15 850 25.1 18.7 65.6 28 0.1 32.2
13:05 1021 30.15 850 25.1 18.9 65.9 28 0.3 32.5
13:10 1021 30.15 850 25.1 19.2 66.6 27 0.2 32.3
13:15 1021 30.15 850 25.1 19.6 67.4 27 0.3 32.5
13:20 1021 30.15 850 25.1 19.9 67.8 25 -0.3 31.4
13:25 1021 30.15 850 25.1 19.4 66.8 27 0.3 32.5
13:30 1021 30.15 850 25.1 19.4 66.9 27 -0.1 31.8
13:35 1021 30.15 850 25.1 19.2 66.5 26 -0.6 30.9
13:40 1021 30.15 850 25.1 19.9 67.7 26 -0.2 31.6
13:45 1021 30.15 850 25.1 20 68 25 -0.6 30.9
13:50 1021 30.15 850 25.1 20.2 68.3 25 -0.4 31.3
13:55 1021 30.15 850 25.1 20.3 68.5 25 -0.5 31.2
14:00 1021 30.15 850 25.1 20 68 22 -1.9 28.6
14:05 1021 30.15 850 25.1 19.8 67.6 25 -0.6 30.9
14:10 1021 30.15 850 25.1 20.2 68.3 25 -0.2 31.7
14:15 1021 30.15 850 25.1 19.8 67.7 24 -0.9 30.3
14:20 1021 30.15 850 25.1 19.7 67.4 23 -1.9 28.6
14:25 1021 30.15 850 25.1 20.4 68.7 22 -1.8 28.7
14:30 1021 30.15 850 25.1 21.2 70.1 21 -1.9 28.6
14:35 1020 30.12 850 25.1 21.3 70.4 22 -1.1 30.1
14:40 1020 30.12 850 25.1 21.3 70.3 21 -2.1 28.3
14:45 1021 30.15 850 25.1 20.6 69 22 -1.8 28.8
14:50 1020 30.12 850 25.1 21 69.8 20 -2.3 27.8
14:55 1020 30.12 850 25.1 20.3 68.6 22 -1.8 28.8
15:00 1020 30.12 850 25.1 20.4 68.7 22 -1.8 28.8
15:05 1020 30.12 850 25.1 20.3 68.6 20 -3.5 25.8
15:10 1020 30.12 850 25.1 21.2 70.1 20 -2.3 27.8
15:15 1021 30.15 850 25.1 21.7 71.1 19 -2.5 27.6
15:20 1021 30.15 850 25.1 21.7 71.1 19 -2.7 27.1
15:25 1021 30.15 850 25.1 21.7 71 19 -2.7 27.2
15:30 1021 30.15 850 25.1 21.7 71 19 -2.6 27.3
15:35 1021 30.15 850 25.1 21.5 70.8 19 -2.6 27.3
15:40 1021 30.15 850 25.1 21 69.9 22 -1 30.1
15:45 1021 30.15 850 25.1 20.4 68.7 23 -1.3 29.7
15:50 1021 30.15 850 25.1 20.3 68.6 22 -1.7 28.9
15:55 1021 30.15 850 25.1 20.2 68.3 22 -2.1 28.3
16:00 1021 30.15 850 25.1 20.2 68.3 22 -2 28.4
16:05 1021 30.15 850 25.1 20.1 68.1 22 -2 28.3
16:10 1021 30.15 850 25.1 20.1 68.1 22 -2.1 28.2
16:15 1021 30.15 850 25.1 20 68.1 21 -2.6 27.3
16:20 1021 30.15 850 25.1 20.7 69.3 21 -2.4 27.7
16:25 1021 30.15 850 25.1 21.2 70.1 20 -2.2 28
16:30 1021 30.15 850 25.1 21.4 70.6 21 -1.9 28.6
16:35 1021 30.15 850 25.1 21.3 70.4 22 -1.3 29.7
16:40 1021 30.15 850 25.1 21.5 70.6 20 -2 28.4
16:45 1021 30.15 850 25.1 21.4 70.4 21 -1.9 28.5
16:50 1021 30.15 850 25.1 21.4 70.5 20 -2 28.4
16:55 1021 30.15 850 25.1 21.4 70.5 21 -1.8 28.8
17:00 1021 30.15 850 25.1 21.3 70.3 21 -1.8 28.8
17:05 1021 30.15 850 25.1 21 69.8 21 -1.8 28.7
17:10 1021 30.15 850 25.1 20.9 69.6 22 -1.7 29
17:15 1021 30.15 850 25.1 20.9 69.6 22 -1.5 29.3
17:20 1021 30.15 850 25.1 20.3 68.5 23 -1.2 29.8
17:25 1021 30.15 850 25.1 19.5 67.1 24 -1.4 29.4
17:30 1021 30.15 850 25.1 19 66.2 24 -1.8 28.8
17:35 1021 30.15 850 25.1 18.8 65.9 25 -1.7 29
17:40 1021 30.15 850 25.1 18.9 66.1 24 -1.8 28.7
17:45 1021 30.15 850 25.1 18.8 65.9 26 -1.1 30
17:50 1021 30.15 850 25.1 18.6 65.4 26 -1.3 29.7
17:55 1021 30.15 850 25.1 18.4 65.2 26 -1.3 29.6
18:00 1021 30.15 850 25.1 18.5 65.2 26 -1.3 29.7
18:05 1021 30.15 850 25.1 18.4 65.1 26 -1.3 29.7
18:10 1021 30.15 850 25.1 18.3 65 26 -1.2 29.8
18:15 1021 30.15 850 25.1 18.3 64.9 26 -1.3 29.7
18:20 1021 30.15 850 25.1 18.2 64.8 28 -0.7 30.8
18:25 1021 30.15 850 25.1 17.9 64.3 31 0.9 33.6
18:30 1021 30.15 850 25.1 17.3 63.2 37 2.6 36.6
18:35 1021 30.15 850 25.1 16.5 61.7 39 2.8 37
18:40 1021 30.15 850 25.1 15.9 60.7 40 2.5 36.5
18:45 1021 30.15 850 25.1 15.4 59.7 40 2.2 35.9
18:50 1021 30.15 850 25.1 14.9 58.7 47 3.9 39
18:55 1021 30.15 850 25.1 14 57.1 46 2.6 36.7
19:00 1021 30.15 850 25.1 13.9 57.1 45 2.2 36
19:05 1021 30.15 850 25.1 14.2 57.6 46 2.9 37.3
19:10 1021 30.15 850 25.1 14.4 57.8 47 3.3 37.9
19:15 1021 30.15 850 25.1 14.4 57.9 47 3.4 38.2
19:20 1021 30.15 850 25.1 14.3 57.8 48 3.4 38.2
19:25 1021 30.15 851 25.13 14.2 57.6 47 3.3 37.9
19:30 1021 30.15 851 25.13 14.2 57.5 47 3.2 37.8
19:35 1021 30.15 851 25.13 14 57.2 47 3 37.5
19:40 1021 30.15 851 25.13 13.9 57 48 3 37.5
19:45 1022 30.18 851 25.13 13.7 56.7 48 2.9 37.3
19:50 1022 30.18 851 25.13 13.6 56.5 48 2.8 37
19:55 1022 30.18 851 25.13 13.5 56.4 48 2.8 37.1
20:00 1022 30.18 851 25.13 13.4 56.1 49 2.8 37.1
20:05 1022 30.18 851 25.13 13.3 55.9 49 2.7 36.9
20:10 1022 30.18 851 25.13 13.1 55.6 49 2.8 37.1
20:15 1022 30.18 851 25.13 13 55.4 49 2.7 36.8
20:20 1022 30.18 851 25.13 12.9 55.3 50 2.7 36.9
20:25 1022 30.18 851 25.13 12.8 55 50 2.7 36.9
20:30 1022 30.18 851 25.13 12.7 54.8 49 2.5 36.4
20:35 1022 30.18 851 25.13 12.7 54.8 49 2.4 36.3
20:40 1022 30.18 851 25.13 12.6 54.7 49 2.2 36
20:45 1022 30.18 851 25.13 12.5 54.6 49 2.1 35.8
20:50 1022 30.18 851 25.13 12.5 54.4 49 2 35.6
20:55 1022 30.18 851 25.13 12.3 54.1 49 1.9 35.4
21:00 1022 30.18 851 25.13 12.2 53.9 48 1.7 35
21:05 1022 30.18 851 25.13 12.1 53.9 48 1.6 34.9
21:10 1022 30.18 851 25.13 12 53.7 49 1.6 34.8
21:15 1022 30.18 851 25.13 11.9 53.4 49 1.5 34.8
21:20 1022 30.18 851 25.13 11.8 53.3 49 1.6 34.9
21:25 1022 30.18 851 25.13 11.7 53.1 50 1.7 35
21:30 1022 30.18 851 25.13 11.7 53.1 50 1.6 34.9
21:35 1022 30.18 851 25.13 11.7 53 50 1.7 35.1
21:40 1022 30.18 851 25.13 11.6 52.8 50 1.6 35
21:45 1022 30.18 851 25.13 11.5 52.8 51 1.7 35.1
21:50 1022 30.18 851 25.13 11.5 52.6 51 1.7 35.1
21:55 1022 30.18 851 25.13 11.4 52.5 51 1.7 35.1
22:00 1022 30.18 851 25.13 11.3 52.3 51 1.7 35.1
22:05 1022 30.18 851 25.13 11.2 52.2 52 1.8 35.2
22:10 1022 30.18 851 25.13 11.1 52.1 52 1.7 35.1
22:15 1022 30.18 851 25.13 11.2 52.1 52 1.8 35.2
22:20 1022 30.18 851 25.13 11.1 52 52 1.8 35.2
22:25 1022 30.18 851 25.13 11.1 52 53 1.9 35.4
22:30 1022 30.18 851 25.13 11 51.9 53 1.9 35.5
22:35 1022 30.18 851 25.13 11 51.7 54 2 35.6
22:40 1022 30.18 851 25.13 10.9 51.7 53 1.9 35.4
22:45 1022 30.18 851 25.13 10.9 51.7 54 2 35.6
22:50 1022 30.18 852 25.16 10.9 51.6 54 2.1 35.7
22:55 1022 30.18 852 25.16 10.8 51.5 55 2.1 35.8
23:00 1022 30.18 852 25.16 10.8 51.4 55 2.1 35.8
23:05 1022 30.18 852 25.16 10.7 51.2 55 2.1 35.8
23:10 1022 30.18 852 25.16 10.6 51.1 55 2.1 35.7
23:15 1022 30.18 852 25.16 10.4 50.7 56 2.1 35.9
23:20 1023 30.21 852 25.16 10.3 50.5 57 2.2 35.9
23:25 1023 30.21 852 25.16 10.1 50.2 57 2.1 35.8
23:30 1023 30.21 852 25.16 10.2 50.3 57 2.1 35.9
23:35 1023 30.21 852 25.16 10.1 50.2 58 2.2 36
23:40 1023 30.21 852 25.16 10.1 50.1 58 2.2 36
23:45 1023 30.21 852 25.16 10 49.9 59 2.2 36
23:50 1023 30.21 852 25.16 10 49.9 58 2.2 36
23:55 1023 30.21 852 25.16 10 49.9 59 2.3 36.1
24:00 1023 30.21 852 25.16 9.9 49.8 59 2.3 36.2